Main page
METAR-TAF:

METAR-TAF

Airports :

Trieste, Italy

latitude: 45-39N, longitude: 013-45E, elevation: 8 m

Current weather observation

The report was made 1 hour and 2 minutes ago, at 17:55 UTC
Wind 4 kt from the Northeast with gusts up to 15 kt
Temperature 25°C
Humidity 61%
Pressure 1014 hPa
Visibility 10 km or more
Few clouds at a height of 3000 ft

METAR: LIVT 251755Z 04004G15KT 9999 FEW030 25/17 Q1014 RMK FEW QUK 1 QUL 0 VIS MAR 20 KM VIS MIN 9999

Time: 20:57 (18:57 UTC)


TAF: missing

Weather observations and forecasts of more than 4000 airports (METAR and TAF reports).

The available stations are represented by yellow and red dots on the map.

Hover mouse over dot to see the name of the station.

Then click to see weather observations and forecasts.

To change the map : click on the green buttons with a black cross to zoom in, on the green button with a dash to zoom out, or on the green arrows for adjacent maps.


METAR-TAF: